Nearby METAR Reports

 

KMSY - New Orleans,Louisiana, USA
Distance from station: E 11.7mi, 18.8km
Updated: Tue, 07-Feb-2023 11:53am CST
Overcast
Overcast
 Wind from calm
Wind: Calm
Temperature: 66°F , 19°C
Dew Point: 63°F , 17°C
Humidity: 88%
Barometer: 1021.3 hPa
Clouds: Overcast
Visibility: 10 miles , 16 km
Cloud details: Overcast 1300 ft
2023/02/07 17:53 KMSY 071753Z 00000KT 10SM OVC013 19/17 A3016 RMK AO2 SLP216 60000 T01940167 10194 20156 50001
KAPS - Reserve,Louisiana, USA
Distance from station: W 8.4mi, 13.5km
Updated: Tue, 07-Feb-2023 11:38am CST
Mostly Cloudy
Mostly Cloudy
 Wind from E
Wind: E 7 mph , 11 km/h
Temperature: 70°F , 21°C
Dew Point: 63°F , 17°C
Humidity: 78%
Barometer: 1021.7 hPa
Clouds: Mostly Cloudy
Visibility: 10 miles , 16 km
Cloud details: Mostly Cloudy 1300 ft
2023/02/07 17:38 KAPS 071738Z AUTO 08006KT 10SM BKN013 21/17 A3017 RMK AO2
 
KHDC - Hammond,Louisiana, USA
Distance from station: N 31.5mi, 50.6km
Updated: Tue, 07-Feb-2023 11:55am CST
Overcast
Overcast
 Wind from calm
Wind: Calm
Temperature: 64°F , 18°C
Dew Point: 64°F , 18°C
Humidity: 100%
Barometer: 1021.7 hPa
Clouds: Overcast
Visibility: 10 miles , 16 km
Cloud details: Overcast 1200 ft
2023/02/07 17:55 KHDC 071755Z AUTO 00000KT 10SM OVC012 18/18 A3017 RMK AO2 T01800176 10180 20112
KHUM - Houma,Louisiana, USA
Distance from station: SW 36.54mi, 58.8km
Updated: Tue, 07-Feb-2023 11:47am CST
Clear
Clear
 Wind from ESE
Wind: ESE 8 mph , 13 km/h
Temperature: 75°F , 24°C
Dew Point: 66°F , 19°C
Humidity: 74%
Barometer: 1020.7 hPa
Clouds: Clear
Visibility: 7 miles , 11 km
2023/02/07 17:47 KHUM 071747Z 11007KT 7SM CLR 24/19 A3014